createdAt,value
2023-02-25T00:00:25.156Z,101252.66
2023-02-25T00:03:12.622Z,101243.41
2023-02-25T00:06:05.168Z,101250.31
2023-02-25T00:08:52.937Z,101257.41
2023-02-25T00:11:39.904Z,101251.63
2023-02-25T00:14:28.015Z,101256.00
2023-02-25T00:17:15.070Z,101258.22
2023-02-25T00:20:02.352Z,101257.41
2023-02-25T00:22:49.637Z,101265.97
2023-02-25T00:25:36.732Z,101268.38
2023-02-25T00:28:23.617Z,101270.03
2023-02-25T00:31:13.494Z,101265.28
2023-02-25T00:34:00.504Z,101269.66
2023-02-25T00:36:48.312Z,101271.81
2023-02-25T00:39:44.659Z,101265.72
2023-02-25T00:42:31.618Z,101250.06
2023-02-25T00:45:18.599Z,101260.75
2023-02-25T00:48:05.681Z,101253.91
2023-02-25T00:50:52.589Z,101252.50
2023-02-25T00:53:40.941Z,101257.41
2023-02-25T00:56:27.937Z,101253.03
2023-02-25T00:59:14.928Z,101248.56
2023-02-25T01:02:02.130Z,101258.66
2023-02-25T01:04:49.226Z,101265.19
2023-02-25T01:07:38.126Z,101254.44
2023-02-25T01:10:25.051Z,101258.78
2023-02-25T01:13:12.047Z,101256.28
2023-02-25T01:15:58.972Z,101258.19
2023-02-25T01:18:46.665Z,101260.63
2023-02-25T01:21:36.896Z,101258.69
2023-02-25T01:24:30.074Z,101252.47
2023-02-25T01:27:17.094Z,101249.63
2023-02-25T01:30:05.468Z,101235.25
2023-02-25T01:32:52.585Z,101240.56
2023-02-25T01:35:39.583Z,101245.91
2023-02-25T01:38:27.434Z,101246.81
2023-02-25T01:41:14.404Z,101253.72
2023-02-25T01:44:29.160Z,101258.16
2023-02-25T01:47:22.459Z,101263.44
2023-02-25T01:50:10.296Z,101263.78
2023-02-25T01:53:02.104Z,101266.38
2023-02-25T01:55:49.586Z,101255.53
2023-02-25T01:58:36.954Z,101249.06
2023-02-25T02:01:27.646Z,101247.72
2023-02-25T02:04:16.730Z,101245.06
2023-02-25T02:07:04.400Z,101239.34
2023-02-25T02:09:57.277Z,101248.91
2023-02-25T02:12:47.406Z,101245.59
2023-02-25T02:15:40.178Z,101253.81
2023-02-25T02:18:30.318Z,101250.25
2023-02-25T02:21:41.288Z,101262.84
2023-02-25T02:24:40.278Z,101259.31
2023-02-25T02:27:58.521Z,101261.97
2023-02-25T02:31:16.333Z,101273.16
2023-02-25T02:34:41.972Z,101283.03
2023-02-25T02:37:46.154Z,101279.78
2023-02-25T02:40:43.240Z,101277.63
2023-02-25T02:43:41.146Z,101277.09
2023-02-25T02:46:35.806Z,101283.69
2023-02-25T02:49:57.803Z,101280.44
2023-02-25T02:52:51.394Z,101279.59
2023-02-25T02:55:48.227Z,101289.69
2023-02-25T02:58:43.265Z,101291.34
2023-02-25T03:01:35.012Z,101305.03
2023-02-25T03:04:28.041Z,101305.03
2023-02-25T03:07:18.004Z,101313.78
2023-02-25T03:10:08.670Z,101317.63
2023-02-25T03:12:55.805Z,101319.03
2023-02-25T03:15:44.152Z,101303.97
2023-02-25T03:18:53.245Z,101308.69
2023-02-25T03:21:49.693Z,101308.94
2023-02-25T03:24:46.120Z,101308.69
2023-02-25T03:27:43.559Z,101309.47
2023-02-25T03:30:47.022Z,101311.69
2023-02-25T03:33:48.606Z,101312.28
2023-02-25T03:36:46.082Z,101313.41
2023-02-25T03:39:38.619Z,101318.81
2023-02-25T03:42:32.381Z,101314.94
2023-02-25T03:45:21.372Z,101325.34
2023-02-25T03:48:10.950Z,101322.84
2023-02-25T03:51:02.873Z,101326.41
2023-02-25T03:53:50.362Z,101321.94
2023-02-25T03:56:46.261Z,101327.97
2023-02-25T03:59:33.178Z,101330.13
2023-02-25T04:02:21.326Z,101336.94
2023-02-25T04:05:10.206Z,101331.19
2023-02-25T04:07:59.262Z,101327.31
2023-02-25T04:10:47.165Z,101334.97
2023-02-25T04:13:34.135Z,101347.59
2023-02-25T04:16:21.326Z,101340.38
2023-02-25T04:19:08.435Z,101334.31
2023-02-25T04:21:55.360Z,101334.25
2023-02-25T04:24:42.286Z,101338.88
2023-02-25T04:27:29.364Z,101334.72
2023-02-25T04:30:16.342Z,101341.25
2023-02-25T04:33:03.351Z,101345.63
2023-02-25T04:35:51.032Z,101350.00
2023-02-25T04:38:38.037Z,101348.88
2023-02-25T04:41:29.623Z,101345.84
2023-02-25T04:44:16.565Z,101353.28
2023-02-25T04:47:03.611Z,101352.16
2023-02-25T04:49:50.558Z,101356.03
2023-02-25T04:52:37.645Z,101348.88
2023-02-25T04:55:24.545Z,101353.28
2023-02-25T04:58:11.469Z,101373.53
2023-02-25T05:01:03.148Z,101371.28
2023-02-25T05:03:50.271Z,101378.66
2023-02-25T05:06:37.296Z,101386.59
2023-02-25T05:09:24.261Z,101383.53
2023-02-25T05:12:11.211Z,101388.25
2023-02-25T05:14:58.196Z,101384.09
2023-02-25T05:17:45.158Z,101382.16
2023-02-25T05:20:32.098Z,101386.00
2023-02-25T05:23:19.029Z,101393.94
2023-02-25T05:26:06.578Z,101383.78
2023-02-25T05:28:56.071Z,101396.41
2023-02-25T05:31:43.086Z,101396.41
2023-02-25T05:34:30.152Z,101393.34
2023-02-25T05:37:17.208Z,101387.03
2023-02-25T05:40:04.546Z,101381.56
2023-02-25T05:42:51.508Z,101383.50
2023-02-25T05:45:38.469Z,101377.19
2023-02-25T05:48:25.757Z,101385.44
2023-02-25T05:51:18.688Z,101381.03
2023-02-25T05:54:05.813Z,101388.44
2023-02-25T05:56:53.076Z,101387.94
2023-02-25T05:59:39.972Z,101382.75
2023-02-25T06:02:27.348Z,101381.09
2023-02-25T06:05:14.317Z,101377.84
2023-02-25T06:08:01.381Z,101389.41
2023-02-25T06:10:48.589Z,101404.25
2023-02-25T06:13:35.582Z,101398.47
2023-02-25T06:16:25.992Z,101399.81
2023-02-25T06:19:13.286Z,101394.31
2023-02-25T06:22:00.324Z,101399.00
2023-02-25T06:24:47.242Z,101393.50
2023-02-25T06:27:34.171Z,101384.44
2023-02-25T06:30:21.120Z,101404.78
2023-02-25T06:33:08.087Z,101408.31
2023-02-25T06:35:55.691Z,101417.38
2023-02-25T06:38:44.173Z,101411.88
2023-02-25T06:41:31.143Z,101411.88
2023-02-25T06:44:18.066Z,101412.19
2023-02-25T06:47:05.062Z,101416.88
2023-02-25T06:49:51.980Z,101422.34
2023-02-25T06:52:38.947Z,101423.75
2023-02-25T06:55:26.715Z,101426.78
2023-02-25T06:58:15.596Z,101425.44
2023-02-25T07:01:06.981Z,101432.88
2023-02-25T07:03:54.054Z,101435.31
2023-02-25T07:06:41.037Z,101446.59
2023-02-25T07:09:28.059Z,101441.13
2023-02-25T07:12:15.094Z,101458.69
2023-02-25T07:15:02.163Z,101455.94
2023-02-25T07:17:49.490Z,101457.59
2023-02-25T07:20:39.187Z,101450.44
2023-02-25T07:23:26.304Z,101461.94
2023-02-25T07:26:14.273Z,101462.78
2023-02-25T07:29:01.379Z,101463.59
2023-02-25T07:31:48.486Z,101469.09
2023-02-25T07:34:36.981Z,101469.09
2023-02-25T07:37:23.908Z,101465.81
2023-02-25T07:40:13.047Z,101472.41
2023-02-25T07:43:00.045Z,101465.81
2023-02-25T07:45:49.539Z,101476.81
2023-02-25T07:48:36.707Z,101471.00
2023-02-25T07:51:25.466Z,101480.34
2023-02-25T07:54:12.596Z,101481.69
2023-02-25T07:56:59.571Z,101486.06
2023-02-25T07:59:46.553Z,101477.25
2023-02-25T08:02:33.558Z,101484.41
2023-02-25T08:05:22.723Z,101491.50
2023-02-25T08:08:09.804Z,101494.78
2023-02-25T08:10:56.742Z,101497.53
2023-02-25T08:13:43.739Z,101500.25
2023-02-25T08:16:30.705Z,101502.72
2023-02-25T08:19:17.586Z,101510.66
2023-02-25T08:22:04.831Z,101508.47
2023-02-25T08:24:51.810Z,101510.09
2023-02-25T08:27:38.895Z,101517.22
2023-02-25T08:30:25.849Z,101520.50
2023-02-25T08:33:12.786Z,101512.78
2023-02-25T08:36:12.320Z,101529.75
2023-02-25T08:39:00.303Z,101532.75
2023-02-25T08:41:47.235Z,101535.44
2023-02-25T08:44:34.158Z,101536.72
2023-02-25T08:47:21.082Z,101535.94
2023-02-25T08:50:09.921Z,101526.88
2023-02-25T08:52:57.888Z,101530.13
2023-02-25T08:55:44.807Z,101532.81
2023-02-25T08:58:32.735Z,101527.56
2023-02-25T09:01:20.427Z,101528.59
2023-02-25T09:04:07.498Z,101531.59
2023-02-25T09:06:54.722Z,101530.44
2023-02-25T09:09:41.783Z,101539.13
2023-02-25T09:12:30.728Z,101529.41
2023-02-25T09:15:17.696Z,101535.06
2023-02-25T09:18:04.859Z,101540.41
2023-02-25T09:20:51.956Z,101539.16
2023-02-25T09:23:38.933Z,101535.84
2023-02-25T09:26:26.024Z,101546.81
2023-02-25T09:29:13.054Z,101537.59
2023-02-25T09:32:00.140Z,101552.84
2023-02-25T09:34:49.280Z,101550.66
2023-02-25T09:37:36.306Z,101561.16
2023-02-25T09:40:23.375Z,101549.84
2023-02-25T09:43:28.352Z,101554.31
2023-02-25T09:46:19.256Z,101549.47
2023-02-25T09:49:21.867Z,101556.13
2023-02-25T09:52:12.262Z,101555.03
2023-02-25T09:55:06.623Z,101566.56
2023-02-25T09:58:03.068Z,101565.66
2023-02-25T10:01:15.605Z,101574.13
2023-02-25T10:04:14.701Z,101568.97
2023-02-25T10:07:12.969Z,101568.75
2023-02-25T10:10:15.328Z,101555.34
2023-02-25T10:13:16.634Z,101565.63
2023-02-25T10:16:54.484Z,101571.03
2023-02-25T10:20:02.663Z,101578.31
2023-02-25T10:23:08.077Z,101590.56
2023-02-25T10:26:03.525Z,101584.09
2023-02-25T10:29:00.615Z,101586.94
2023-02-25T10:31:47.920Z,101588.16
2023-02-25T10:34:38.956Z,101577.81
2023-02-25T10:37:38.168Z,101587.41
2023-02-25T10:40:29.270Z,101579.84
2023-02-25T10:43:22.608Z,101588.81
2023-02-25T10:46:37.508Z,101582.25
2023-02-25T10:49:27.293Z,101597.66
2023-02-25T10:52:17.635Z,101597.16
2023-02-25T10:55:04.956Z,101590.41
2023-02-25T10:57:52.103Z,101598.19
2023-02-25T11:00:41.068Z,101602.22
2023-02-25T11:03:31.634Z,101594.38
2023-02-25T11:06:24.864Z,101598.09
2023-02-25T11:09:21.212Z,101601.59
2023-02-25T11:12:08.094Z,101604.00
2023-02-25T11:14:55.053Z,101611.50
2023-02-25T11:17:44.746Z,101600.78
2023-02-25T11:20:32.579Z,101602.41
2023-02-25T11:23:31.299Z,101593.09
2023-02-25T11:26:30.334Z,101592.91
2023-02-25T11:29:23.021Z,101593.69
2023-02-25T11:32:15.585Z,101590.72
2023-02-25T11:35:09.204Z,101594.91
2023-02-25T11:37:58.455Z,101593.25
2023-02-25T11:40:45.689Z,101604.88
2023-02-25T11:43:40.723Z,101591.19
2023-02-25T11:46:32.763Z,101601.44
2023-02-25T11:49:43.790Z,101600.00
2023-02-25T11:52:39.650Z,101601.72
2023-02-25T11:55:52.455Z,101607.53
2023-02-25T11:59:13.568Z,101607.44
2023-02-25T12:02:19.288Z,101615.13
2023-02-25T12:05:09.162Z,101620.53
2023-02-25T12:08:19.331Z,101613.31
2023-02-25T12:11:24.834Z,101620.75
2023-02-25T12:14:50.926Z,101613.59
2023-02-25T12:21:19.874Z,101614.50
2023-02-25T12:24:12.480Z,101617.97
2023-02-25T12:27:13.143Z,101614.69
2023-02-25T12:30:16.190Z,101603.13
2023-02-25T12:33:10.279Z,101606.53
2023-02-25T12:36:20.266Z,101608.31
2023-02-25T12:39:19.224Z,101613.31
2023-02-25T12:42:34.301Z,101616.06
2023-02-25T12:45:59.523Z,101615.34
2023-02-25T12:49:11.229Z,101610.19
2023-02-25T12:52:17.510Z,101605.91
2023-02-25T12:55:41.790Z,101600.13
2023-02-25T12:59:04.688Z,101602.44
2023-02-25T13:02:02.997Z,101595.94
2023-02-25T13:04:58.866Z,101603.59
2023-02-25T13:07:56.222Z,101604.19
2023-02-25T13:11:16.366Z,101590.25
2023-02-25T13:14:03.280Z,101593.44
2023-02-25T13:16:58.425Z,101589.91
2023-02-25T13:20:06.920Z,101592.47
2023-02-25T13:22:57.146Z,101596.69
2023-02-25T13:26:11.749Z,101595.53
2023-02-25T13:29:34.135Z,101590.41
2023-02-25T13:32:49.779Z,101586.38
2023-02-25T13:36:02.804Z,101590.06
2023-02-25T13:39:01.907Z,101583.72
2023-02-25T13:41:48.796Z,101597.19
2023-02-25T13:44:47.929Z,101607.81
2023-02-25T13:47:38.171Z,101592.69
2023-02-25T13:50:43.805Z,101586.97
2023-02-25T13:53:49.066Z,101587.56
2023-02-25T13:56:46.369Z,101580.81
2023-02-25T14:00:01.847Z,101585.78
2023-02-25T14:03:36.432Z,101574.63
2023-02-25T14:06:23.336Z,101576.50
2023-02-25T14:09:44.329Z,101576.34
2023-02-25T14:13:01.881Z,101583.91
2023-02-25T14:16:07.739Z,101562.91
2023-02-25T14:19:20.046Z,101573.72
2023-02-25T14:22:43.793Z,101579.66
2023-02-25T14:26:01.739Z,101581.06
2023-02-25T14:29:14.905Z,101586.78
2023-02-25T14:32:21.281Z,101586.56
2023-02-25T14:35:20.862Z,101585.75
2023-02-25T14:38:15.047Z,101590.63
2023-02-25T14:41:20.331Z,101590.44
2023-02-25T14:44:14.542Z,101580.25
2023-02-25T14:47:11.211Z,101580.16
2023-02-25T14:50:00.597Z,101589.75
2023-02-25T14:52:53.186Z,101587.88
2023-02-25T14:56:01.250Z,101573.69
2023-02-25T14:59:00.319Z,101586.75
2023-02-25T15:02:21.074Z,101593.69
2023-02-25T15:05:34.083Z,101579.59
2023-02-25T15:08:26.695Z,101586.09
2023-02-25T15:11:37.930Z,101582.16
2023-02-25T15:15:03.443Z,101584.78
2023-02-25T15:18:13.853Z,101596.78
2023-02-25T15:21:29.537Z,101586.72
2023-02-25T15:24:36.892Z,101596.72
2023-02-25T15:27:45.041Z,101588.81
2023-02-25T15:31:03.366Z,101590.84
2023-02-25T15:33:50.618Z,101587.16
2023-02-25T15:36:44.958Z,101589.69
2023-02-25T15:39:41.279Z,101585.59
2023-02-25T15:42:51.698Z,101591.25
2023-02-25T15:45:40.836Z,101591.19
2023-02-25T15:48:32.489Z,101587.69
2023-02-25T15:51:38.963Z,101589.25
2023-02-25T15:54:28.803Z,101580.41
2023-02-25T15:57:21.521Z,101589.25
2023-02-25T16:00:28.379Z,101582.19
2023-02-25T16:03:36.420Z,101577.94
2023-02-25T16:06:39.490Z,101588.19
2023-02-25T16:09:27.707Z,101585.38
2023-02-25T16:12:15.840Z,101595.34
2023-02-25T16:15:04.089Z,101599.69
2023-02-25T16:17:52.544Z,101608.09
2023-02-25T16:20:46.773Z,101602.72
2023-02-25T16:23:39.065Z,101614.91
2023-02-25T16:26:55.450Z,101610.22
2023-02-25T16:30:16.819Z,101613.28
2023-02-25T16:33:12.113Z,101615.50
2023-02-25T16:36:24.891Z,101621.59
2023-02-25T16:39:18.920Z,101625.44
2023-02-25T16:42:11.762Z,101624.41
2023-02-25T16:45:05.028Z,101636.06
2023-02-25T16:47:58.127Z,101630.06
2023-02-25T16:50:47.960Z,101636.97
2023-02-25T16:53:35.027Z,101634.47
2023-02-25T16:56:25.896Z,101640.56
2023-02-25T16:59:13.000Z,101641.69
2023-02-25T17:02:21.819Z,101645.47
2023-02-25T17:05:23.792Z,101649.81
2023-02-25T17:08:16.535Z,101650.56
2023-02-25T17:11:05.351Z,101650.06
2023-02-25T17:13:56.117Z,101647.00
2023-02-25T17:16:47.910Z,101663.50
2023-02-25T17:19:34.940Z,101652.25
2023-02-25T17:22:23.628Z,101656.13
2023-02-25T17:25:16.179Z,101661.69
2023-02-25T17:28:04.287Z,101660.34
2023-02-25T17:30:52.201Z,101658.19
2023-02-25T17:33:54.300Z,101661.53
2023-02-25T17:36:41.592Z,101659.34
2023-02-25T17:39:29.757Z,101656.03
2023-02-25T17:42:31.592Z,101662.94
2023-02-25T17:45:47.205Z,101661.59
2023-02-25T17:48:43.275Z,101661.84
2023-02-25T17:51:33.901Z,101674.25
2023-02-25T17:54:24.389Z,101669.91
2023-02-25T17:57:23.518Z,101673.44
2023-02-25T18:00:26.177Z,101671.00
2023-02-25T18:03:21.244Z,101677.88
2023-02-25T18:06:43.819Z,101688.06
2023-02-25T18:09:38.132Z,101685.84
2023-02-25T18:12:28.650Z,101699.88
2023-02-25T18:15:19.207Z,101695.22
2023-02-25T18:18:07.652Z,101704.56
2023-02-25T18:20:58.094Z,101701.28
2023-02-25T18:23:46.149Z,101698.22
2023-02-25T18:26:33.794Z,101711.19
2023-02-25T18:29:20.750Z,101713.63
2023-02-25T18:32:07.868Z,101719.44
2023-02-25T18:34:54.982Z,101715.53
2023-02-25T18:37:43.454Z,101717.47
2023-02-25T18:40:38.935Z,101722.69
2023-02-25T18:43:30.648Z,101729.00
2023-02-25T18:46:17.603Z,101722.69
2023-02-25T18:49:04.512Z,101726.25
2023-02-25T18:51:52.144Z,101721.03
2023-02-25T18:54:40.741Z,101729.28
2023-02-25T18:57:29.194Z,101734.78
2023-02-25T19:00:19.359Z,101735.91
2023-02-25T19:03:07.369Z,101735.09
2023-02-25T19:05:54.650Z,101738.34
2023-02-25T19:08:41.593Z,101744.69
2023-02-25T19:11:33.343Z,101750.19
2023-02-25T19:14:21.102Z,101751.28
2023-02-25T19:17:14.865Z,101756.25
2023-02-25T19:20:02.248Z,101760.09
2023-02-25T19:22:52.048Z,101765.59
2023-02-25T19:25:39.148Z,101763.97
2023-02-25T19:28:27.045Z,101769.47
2023-02-25T19:31:14.129Z,101772.22
2023-02-25T19:34:01.117Z,101761.78
2023-02-25T19:36:48.188Z,101764.53
2023-02-25T19:39:35.148Z,101777.16
2023-02-25T19:42:22.117Z,101768.38
2023-02-25T19:45:11.986Z,101770.03
2023-02-25T19:47:59.869Z,101767.81
2023-02-25T19:50:48.111Z,101760.66
2023-02-25T19:53:35.679Z,101772.78
2023-02-25T19:56:23.222Z,101774.97
2023-02-25T19:59:12.026Z,101771.09
2023-02-25T20:01:59.109Z,101773.56
2023-02-25T20:04:46.028Z,101772.75
2023-02-25T20:07:33.235Z,101771.91
2023-02-25T20:10:21.837Z,101769.47
2023-02-25T20:13:08.800Z,101771.66
2023-02-25T20:16:01.289Z,101777.97
2023-02-25T20:18:52.199Z,101776.38
2023-02-25T20:21:39.126Z,101787.88
2023-02-25T20:24:26.231Z,101796.94
2023-02-25T20:27:13.179Z,101796.13
2023-02-25T20:30:00.256Z,101799.41
2023-02-25T20:32:47.289Z,101799.13
2023-02-25T20:35:34.512Z,101799.41
2023-02-25T20:38:33.903Z,101811.75
2023-02-25T20:41:20.964Z,101813.09
2023-02-25T20:44:08.560Z,101817.75
2023-02-25T20:46:55.870Z,101825.47
2023-02-25T20:49:42.986Z,101829.34
2023-02-25T20:52:30.180Z,101822.72
2023-02-25T20:55:17.160Z,101826.00
2023-02-25T20:58:04.114Z,101828.75
2023-02-25T21:00:51.096Z,101842.22
2023-02-25T21:03:38.107Z,101834.25
2023-02-25T21:06:26.587Z,101835.91
2023-02-25T21:09:13.714Z,101837.56
2023-02-25T21:12:00.684Z,101843.59
2023-02-25T21:14:47.646Z,101849.06
2023-02-25T21:17:34.622Z,101846.31
2023-02-25T21:20:21.562Z,101855.41
2023-02-25T21:23:11.324Z,101861.72
2023-02-25T21:25:58.551Z,101859.53
2023-02-25T21:28:46.764Z,101860.34
2023-02-25T21:31:34.188Z,101868.31
2023-02-25T21:34:21.340Z,101867.22
2023-02-25T21:37:08.301Z,101870.50
2023-02-25T21:39:56.873Z,101867.75
2023-02-25T21:42:43.788Z,101864.47
2023-02-25T21:45:30.723Z,101869.97
2023-02-25T21:48:17.654Z,101881.75
2023-02-25T21:51:04.966Z,101871.59
2023-02-25T21:53:57.092Z,101875.47
2023-02-25T21:56:44.094Z,101881.75
2023-02-25T21:59:31.012Z,101872.41
2023-02-25T22:02:17.966Z,101878.22
2023-02-25T22:05:05.247Z,101879.31
2023-02-25T22:07:52.188Z,101880.97
2023-02-25T22:10:40.075Z,101880.97
2023-02-25T22:13:32.659Z,101876.25
2023-02-25T22:16:21.284Z,101880.97
2023-02-25T22:19:08.341Z,101877.09
2023-02-25T22:21:55.323Z,101882.31
2023-02-25T22:24:42.276Z,101891.38
2023-02-25T22:27:29.671Z,101892.19
2023-02-25T22:30:16.882Z,101901.25
2023-02-25T22:33:03.822Z,101885.88
2023-02-25T22:35:59.124Z,101902.34
2023-02-25T22:38:47.405Z,101896.84
2023-02-25T22:41:35.619Z,101896.84
2023-02-25T22:44:22.878Z,101907.06
2023-02-25T22:47:09.800Z,101916.09
2023-02-25T22:49:56.818Z,101910.59
2023-02-25T22:52:44.893Z,101920.81
2023-02-25T22:55:33.851Z,101922.72
2023-02-25T22:58:20.817Z,101916.09
2023-02-25T23:01:08.881Z,101912.56
2023-02-25T23:03:56.639Z,101913.66
2023-02-25T23:06:45.128Z,101913.34
2023-02-25T23:09:32.400Z,101918.06
2023-02-25T23:12:21.175Z,101918.06
2023-02-25T23:15:09.480Z,101918.84
2023-02-25T23:17:56.468Z,101931.50
2023-02-25T23:20:43.873Z,101915.00
2023-02-25T23:23:38.392Z,101923.25
2023-02-25T23:26:29.525Z,101931.50
2023-02-25T23:29:16.422Z,101931.50
2023-02-25T23:32:03.561Z,101931.25
2023-02-25T23:34:51.489Z,101938.13
2023-02-25T23:37:38.651Z,101946.41
2023-02-25T23:40:25.735Z,101950.28
2023-02-25T23:43:12.735Z,101952.47
2023-02-25T23:46:06.699Z,101947.53
2023-02-25T23:48:58.480Z,101960.75
2023-02-25T23:51:47.688Z,101964.63
2023-02-25T23:54:34.687Z,101961.88
2023-02-25T23:57:21.724Z,101953.03
